Time;durP1;ratioP1;P1;durP2;ratioP2;P2;SDS_P1;SDS_P2;PMS_P1;PMS_P2;Temp;Humidity;BMP_temperature;BMP_pressure;BME280_temperature;BME280_humidity;BME280_pressure;Samples;Min_cycle;Max_cycle;Signal;HPM_P1;HPM_P2
2023/03/05 00:01:24;;;;;;;1.15;1.15;;;4.60;1.00;;;;;;5036689;28;20434;-72
2023/03/05 00:03:52;;;;;;;1.00;1.00;;;4.50;1.00;;;;;;5042295;28;20429;-72
2023/03/05 00:06:22;;;;;;;2.70;1.80;;;4.50;1.00;;;;;;5037671;28;20433;-72
2023/03/05 00:08:52;;;;;;;1.70;0.80;;;4.50;1.00;;;;;;5038140;28;20438;-73
2023/03/05 00:11:19;;;;;;;2.10;1.45;;;4.50;1.00;;;;;;5048414;28;20429;-72
2023/03/05 00:13:51;;;;;;;1.15;1.00;;;4.50;1.00;;;;;;5036974;28;20438;-73
2023/03/05 00:16:18;;;;;;;1.58;1.42;;;4.50;1.00;;;;;;5045874;28;20464;-73
2023/03/05 00:18:45;;;;;;;1.83;1.13;;;4.50;1.00;;;;;;5047808;28;20429;-72
2023/03/05 00:21:18;;;;;;;1.63;1.52;;;4.50;1.00;;;;;;5048504;28;22454;-73
2023/03/05 00:23:45;;;;;;;0.93;0.93;;;4.50;1.00;;;;;;5040297;28;20429;-73
2023/03/05 00:26:12;;;;;;;1.35;1.20;;;4.50;1.00;;;;;;5044073;28;20508;-72
2023/03/05 00:28:39;;;;;;;1.95;1.05;;;4.50;1.00;;;;;;5047438;28;20429;-72
2023/03/05 00:31:06;;;;;;;1.17;0.93;;;4.50;1.00;;;;;;5039835;28;20449;-73
2023/03/05 00:33:33;;;;;;;2.25;1.23;;;4.50;1.00;;;;;;5041774;28;20431;-73
2023/03/05 00:36:05;;;;;;;1.85;1.50;;;4.50;1.00;;;;;;5041439;28;20429;-73
2023/03/05 00:38:32;;;;;;;4.22;1.23;;;4.50;1.00;;;;;;5046485;28;20430;-73
2023/03/05 00:40:59;;;;;;;1.45;1.35;;;4.50;1.00;;;;;;5046210;28;20425;-73
2023/03/05 00:43:26;;;;;;;2.38;1.13;;;4.50;1.00;;;;;;5043756;28;20442;-73
2023/03/05 00:45:53;;;;;;;1.88;1.00;;;4.50;1.00;;;;;;5042239;28;20428;-73
2023/03/05 00:48:21;;;;;;;1.00;1.00;;;4.40;1.00;;;;;;5044356;28;20816;-73
2023/03/05 00:50:48;;;;;;;3.65;1.42;;;4.40;1.00;;;;;;5044067;28;20444;-73
2023/03/05 00:53:15;;;;;;;1.95;1.77;;;4.40;1.00;;;;;;5046944;28;20524;-73
2023/03/05 00:55:42;;;;;;;1.20;1.10;;;4.40;1.00;;;;;;5035313;28;20431;-73
2023/03/05 00:58:09;;;;;;;1.63;1.00;;;4.40;1.00;;;;;;5048304;28;20432;-73
2023/03/05 01:00:36;;;;;;;1.98;1.80;;;4.40;1.00;;;;;;5046621;28;20896;-73
2023/03/05 01:03:05;;;;;;;1.83;1.73;;;4.40;1.00;;;;;;5033051;28;20908;-73
2023/03/05 01:05:32;;;;;;;2.55;1.33;;;4.40;1.00;;;;;;5034200;28;20863;-73
2023/03/05 01:07:59;;;;;;;1.55;1.42;;;4.30;1.00;;;;;;5035435;28;21050;-73
2023/03/05 01:10:26;;;;;;;4.30;1.67;;;4.30;1.00;;;;;;5040987;28;20453;-73
2023/03/05 01:12:56;;;;;;;2.50;1.90;;;4.30;1.00;;;;;;5044430;28;20527;-73
2023/03/05 01:15:24;;;;;;;1.88;1.33;;;4.30;1.00;;;;;;5034429;28;20430;-73
2023/03/05 01:17:51;;;;;;;1.20;1.08;;;4.30;1.00;;;;;;5039233;28;21140;-73
2023/03/05 01:20:20;;;;;;;1.63;1.52;;;4.20;1.00;;;;;;5038392;28;20429;-73
2023/03/05 01:22:47;;;;;;;2.10;1.52;;;4.20;1.00;;;;;;5045592;28;20429;-73
2023/03/05 01:25:15;;;;;;;1.02;1.02;;;4.20;1.00;;;;;;5041172;28;20431;-73
2023/03/05 01:27:42;;;;;;;1.25;1.15;;;4.10;1.00;;;;;;5038057;28;20471;-73
2023/03/05 01:30:10;;;;;;;2.95;1.10;;;4.10;1.00;;;;;;5034109;28;20429;-73
2023/03/05 01:32:37;;;;;;;1.02;1.02;;;4.10;1.00;;;;;;5043296;28;20437;-73
2023/03/05 01:35:05;;;;;;;2.55;1.52;;;4.10;1.00;;;;;;5040378;28;20433;-73
2023/03/05 01:37:35;;;;;;;2.70;1.40;;;4.20;1.00;;;;;;5044110;28;20456;-73
2023/03/05 01:40:02;;;;;;;4.50;1.30;;;4.20;1.00;;;;;;5047839;28;20425;-73
2023/03/05 01:42:29;;;;;;;1.20;0.98;;;4.20;1.00;;;;;;5038452;28;20430;-72
2023/03/05 01:45:09;;;;;;;1.45;1.35;;;4.20;1.00;;;;;;5034422;28;20442;-72
2023/03/05 01:47:37;;;;;;;1.20;1.20;;;4.20;1.00;;;;;;5038001;28;20434;-73
2023/03/05 01:50:06;;;;;;;1.65;1.40;;;4.30;1.00;;;;;;5043707;28;20433;-72
2023/03/05 01:52:38;;;;;;;1.60;0.93;;;4.30;1.00;;;;;;5044606;28;20439;-73
2023/03/05 01:55:10;;;;;;;0.73;0.73;;;4.20;1.00;;;;;;5037879;28;20767;-73
2023/03/05 01:57:42;;;;;;;1.30;0.80;;;4.20;1.00;;;;;;5043889;28;20487;-73
2023/03/05 02:00:14;;;;;;;1.50;1.40;;;4.20;1.00;;;;;;5038868;28;20426;-73
2023/03/05 02:02:43;;;;;;;1.90;0.88;;;4.20;1.00;;;;;;5034718;28;20867;-73
2023/03/05 02:05:16;;;;;;;1.10;1.00;;;4.20;1.00;;;;;;5042864;28;20497;-73
2023/03/05 02:07:44;;;;;;;2.30;1.23;;;4.20;1.00;;;;;;5033838;28;21258;-73
2023/03/05 02:10:37;;;;;;;0.90;0.90;;;4.20;1.00;;;;;;5029916;28;20953;-73
2023/03/05 02:13:07;;;;;;;0.80;0.80;;;4.20;1.00;;;;;;5040382;28;20993;-73
2023/03/05 02:15:34;;;;;;;1.77;1.10;;;4.10;1.00;;;;;;5036122;28;20943;-73
2023/03/05 02:18:01;;;;;;;1.30;1.10;;;4.10;1.00;;;;;;5039286;28;20936;-73
2023/03/05 02:20:41;;;;;;;1.13;0.88;;;4.10;1.00;;;;;;5044080;28;20436;-73
2023/03/05 02:23:07;;;;;;;1.90;1.10;;;4.20;1.00;;;;;;5040027;28;20501;-73
2023/03/05 02:25:34;;;;;;;3.97;1.05;;;4.10;1.00;;;;;;5044947;28;20484;-73
2023/03/05 02:28:02;;;;;;;1.27;1.20;;;4.20;1.00;;;;;;5035569;28;22497;-73
2023/03/05 02:30:30;;;;;;;1.23;1.13;;;4.20;1.00;;;;;;5040331;28;20430;-72
2023/03/05 02:32:57;;;;;;;1.58;1.30;;;4.20;1.00;;;;;;5040676;28;20870;-73
2023/03/05 02:35:27;;;;;;;1.17;1.08;;;4.20;1.00;;;;;;5038267;28;20449;-73
2023/03/05 02:37:54;;;;;;;2.30;1.02;;;4.20;1.00;;;;;;5039941;28;20429;-73
2023/03/05 02:40:20;;;;;;;1.60;1.00;;;4.20;1.00;;;;;;5031059;28;20789;-73
2023/03/05 02:42:50;;;;;;;0.98;0.88;;;4.20;1.00;;;;;;5038678;28;20428;-73
2023/03/05 02:45:17;;;;;;;2.58;1.60;;;4.20;1.00;;;;;;5039298;28;20425;-72
2023/03/05 02:47:47;;;;;;;1.60;0.80;;;4.20;1.00;;;;;;5040405;28;20437;-72
2023/03/05 02:50:14;;;;;;;2.87;0.97;;;4.20;1.00;;;;;;5034837;28;20445;-73
2023/03/05 02:52:41;;;;;;;4.27;0.67;;;4.20;1.00;;;;;;5032551;28;20424;-73
2023/03/05 02:55:08;;;;;;;2.95;1.23;;;4.20;1.00;;;;;;5042626;28;20440;-72
2023/03/05 02:57:34;;;;;;;1.00;1.00;;;4.20;1.00;;;;;;5043146;28;20484;-73
2023/03/05 03:00:02;;;;;;;1.67;0.98;;;4.20;1.00;;;;;;5038690;28;20433;-73
2023/03/05 03:02:28;;;;;;;1.00;0.90;;;4.10;1.00;;;;;;5040452;28;20519;-73
2023/03/05 03:04:55;;;;;;;0.57;0.57;;;4.10;1.00;;;;;;5036097;28;20445;-73
2023/03/05 03:07:22;;;;;;;0.70;0.70;;;4.10;1.00;;;;;;5031134;28;20442;-73
2023/03/05 03:09:49;;;;;;;1.30;1.10;;;4.10;1.00;;;;;;5032330;28;20510;-73
2023/03/05 03:12:16;;;;;;;0.70;0.68;;;4.00;1.00;;;;;;5035322;28;20443;-73
2023/03/05 03:14:43;;;;;;;1.05;1.02;;;4.00;1.00;;;;;;5036488;28;20433;-73
2023/03/05 03:17:15;;;;;;;3.80;0.90;;;4.00;1.00;;;;;;5043770;28;20422;-72
2023/03/05 03:19:43;;;;;;;0.73;0.73;;;4.00;1.00;;;;;;5035014;28;20443;-73
2023/03/05 03:22:11;;;;;;;1.60;0.97;;;4.10;1.00;;;;;;5033340;28;20467;-73
2023/03/05 03:24:39;;;;;;;0.75;0.75;;;4.10;1.00;;;;;;5035237;28;20439;-73
2023/03/05 03:27:09;;;;;;;1.30;1.20;;;4.10;1.00;;;;;;5050189;28;20434;-72
2023/03/05 03:29:36;;;;;;;1.08;1.08;;;4.10;1.00;;;;;;5034139;28;20432;-72
2023/03/05 03:32:03;;;;;;;0.60;0.60;;;4.10;1.00;;;;;;5038033;28;20546;-72
2023/03/05 03:34:30;;;;;;;0.45;0.45;;;4.10;1.00;;;;;;5041316;28;20425;-72
2023/03/05 03:37:00;;;;;;;1.00;1.00;;;4.10;1.00;;;;;;5026050;28;20461;-73
2023/03/05 03:39:27;;;;;;;1.42;0.80;;;4.10;1.00;;;;;;5036566;28;20437;-73
2023/03/05 03:41:57;;;;;;;2.73;0.90;;;4.10;1.00;;;;;;5038889;28;20506;-72
2023/03/05 03:44:24;;;;;;;0.95;0.95;;;4.10;1.00;;;;;;5042136;28;20434;-73
2023/03/05 03:46:51;;;;;;;1.95;1.23;;;4.10;1.00;;;;;;5043991;28;20791;-73
2023/03/05 03:49:24;;;;;;;0.60;0.60;;;4.00;1.00;;;;;;5042113;28;20502;-73
2023/03/05 03:51:53;;;;;;;1.00;1.00;;;3.90;1.00;;;;;;5044805;28;20425;-73
2023/03/05 03:54:21;;;;;;;2.93;1.03;;;3.80;1.00;;;;;;5036988;28;20447;-73
2023/03/05 03:56:51;;;;;;;1.98;1.23;;;3.80;1.00;;;;;;5043535;28;20441;-73
2023/03/05 03:59:18;;;;;;;3.77;1.37;;;3.70;1.00;;;;;;5035350;28;20436;-73
2023/03/05 04:01:45;;;;;;;0.85;0.85;;;3.60;1.00;;;;;;5035112;28;20446;-73
2023/03/05 04:04:12;;;;;;;3.20;1.27;;;3.70;1.00;;;;;;5043306;28;20515;-73
2023/03/05 04:06:39;;;;;;;1.50;1.15;;;3.70;1.00;;;;;;5040627;28;20433;-73
2023/03/05 04:09:09;;;;;;;0.63;0.63;;;3.70;1.00;;;;;;5037687;28;20438;-73
2023/03/05 04:11:36;;;;;;;1.25;1.17;;;3.80;1.00;;;;;;5047065;28;20533;-73
2023/03/05 04:14:06;;;;;;;2.30;1.27;;;3.80;1.00;;;;;;5051155;28;20922;-73
2023/03/05 04:16:32;;;;;;;2.70;1.30;;;3.80;1.00;;;;;;5042690;28;20769;-73
2023/03/05 04:18:59;;;;;;;1.60;1.50;;;3.70;1.00;;;;;;5048413;28;20479;-73
2023/03/05 04:21:26;;;;;;;1.80;1.08;;;3.70;1.00;;;;;;5049565;28;20882;-73
2023/03/05 04:23:52;;;;;;;1.15;1.00;;;3.60;1.00;;;;;;5041221;28;20433;-73
2023/03/05 04:26:19;;;;;;;3.58;1.25;;;3.70;1.00;;;;;;5037130;28;20442;-73
2023/03/05 04:28:49;;;;;;;2.00;1.30;;;3.70;1.00;;;;;;5044237;28;20471;-73
2023/03/05 04:31:16;;;;;;;1.35;1.25;;;3.70;1.00;;;;;;5049687;28;21477;-73
2023/03/05 04:33:43;;;;;;;1.60;1.30;;;3.80;1.00;;;;;;5051088;28;21259;-72
2023/03/05 04:36:09;;;;;;;1.17;1.07;;;3.80;1.00;;;;;;5047176;28;20987;-73
2023/03/05 04:38:36;;;;;;;1.90;1.30;;;3.90;1.00;;;;;;5039881;28;20909;-73
2023/03/05 04:41:03;;;;;;;1.92;1.50;;;3.90;1.00;;;;;;5041280;28;20488;-73
2023/03/05 04:43:30;;;;;;;2.58;1.10;;;3.80;1.00;;;;;;5040054;28;20521;-73
2023/03/05 04:45:57;;;;;;;2.42;1.48;;;3.80;1.00;;;;;;5042616;28;20808;-72
2023/03/05 04:48:23;;;;;;;2.75;1.02;;;3.90;1.00;;;;;;5038504;28;20424;-73
2023/03/05 04:50:53;;;;;;;2.17;1.60;;;3.90;1.00;;;;;;5035446;28;21167;-72
2023/03/05 04:53:20;;;;;;;3.45;1.17;;;3.90;1.00;;;;;;5040020;28;20464;-73
2023/03/05 04:55:52;;;;;;;1.30;1.20;;;3.90;1.00;;;;;;5041157;28;20429;-73
2023/03/05 04:58:18;;;;;;;6.30;1.50;;;3.90;1.00;;;;;;5040660;28;20426;-73
2023/03/05 05:00:45;;;;;;;1.13;0.77;;;3.90;1.00;;;;;;5042545;28;20430;-73
2023/03/05 05:03:12;;;;;;;3.10;1.67;;;3.90;1.00;;;;;;5033205;28;20446;-73
2023/03/05 05:05:39;;;;;;;2.70;1.65;;;3.90;1.00;;;;;;5041641;28;20429;-73
2023/03/05 05:08:06;;;;;;;1.15;1.10;;;3.90;1.00;;;;;;5038294;28;20511;-73
2023/03/05 05:10:33;;;;;;;3.80;1.50;;;3.90;1.00;;;;;;5036394;28;20447;-73
2023/03/05 05:12:59;;;;;;;2.10;1.15;;;3.80;1.00;;;;;;5038222;28;20448;-73
2023/03/05 05:15:26;;;;;;;2.15;1.48;;;3.80;1.00;;;;;;5040026;28;20503;-73
2023/03/05 05:17:53;;;;;;;2.80;1.42;;;3.80;1.00;;;;;;5042747;28;20512;-73
2023/03/05 05:20:20;;;;;;;1.05;0.95;;;3.70;1.00;;;;;;5039245;28;20429;-73
2023/03/05 05:22:46;;;;;;;4.38;1.17;;;3.70;1.00;;;;;;5037266;28;20439;-73
2023/03/05 05:25:13;;;;;;;1.30;1.20;;;3.70;1.00;;;;;;5031865;28;21162;-73
2023/03/05 05:27:40;;;;;;;1.30;1.20;;;3.70;1.00;;;;;;5044431;28;20433;-73
2023/03/05 05:30:08;;;;;;;1.80;1.23;;;3.70;1.00;;;;;;5044678;28;20468;-73
2023/03/05 05:32:35;;;;;;;1.02;0.88;;;3.60;1.00;;;;;;5040331;28;20431;-73
2023/03/05 05:35:02;;;;;;;0.80;0.80;;;3.60;1.00;;;;;;5041529;28;20425;-73
2023/03/05 05:37:32;;;;;;;1.10;0.95;;;3.50;1.00;;;;;;5040224;28;20478;-73
2023/03/05 05:39:59;;;;;;;3.33;0.90;;;3.40;1.00;;;;;;5048744;28;20504;-73
2023/03/05 05:42:28;;;;;;;1.40;0.80;;;3.40;1.00;;;;;;5040388;28;20510;-73
2023/03/05 05:44:55;;;;;;;0.60;0.50;;;3.40;1.00;;;;;;5044333;28;20506;-73
2023/03/05 05:47:25;;;;;;;2.10;0.77;;;3.40;1.00;;;;;;5039512;28;20433;-73
2023/03/05 05:49:52;;;;;;;0.68;0.68;;;3.40;1.00;;;;;;5043355;28;20528;-73
2023/03/05 05:52:18;;;;;;;0.82;0.82;;;3.30;1.00;;;;;;5033308;28;20423;-73
2023/03/05 05:54:45;;;;;;;1.98;1.10;;;3.20;1.00;;;;;;5042071;28;20475;-73
2023/03/05 05:57:13;;;;;;;0.63;0.63;;;3.10;99.90;;;;;;5038034;28;20471;-73
2023/03/05 05:59:40;;;;;;;1.00;0.82;;;3.10;99.90;;;;;;5041716;28;20436;-73
2023/03/05 06:02:07;;;;;;;1.13;0.60;;;3.00;99.90;;;;;;5033325;28;20450;-73
2023/03/05 06:04:35;;;;;;;1.27;1.17;;;2.90;99.90;;;;;;5032699;28;20462;-73
2023/03/05 06:07:02;;;;;;;1.15;0.85;;;2.90;99.90;;;;;;5042300;28;20439;-73
2023/03/05 06:09:29;;;;;;;0.68;0.68;;;2.80;99.90;;;;;;5037073;28;20466;-73
2023/03/05 06:11:56;;;;;;;4.40;0.50;;;2.80;99.90;;;;;;5042102;28;20457;-73
2023/03/05 06:14:23;;;;;;;0.57;0.57;;;2.80;99.90;;;;;;5033545;28;20435;-73
2023/03/05 06:16:49;;;;;;;1.00;0.68;;;2.80;99.90;;;;;;5031038;28;21125;-73
2023/03/05 06:19:16;;;;;;;0.40;0.40;;;2.80;99.90;;;;;;5038850;28;20433;-73
2023/03/05 06:21:52;;;;;;;1.10;0.60;;;2.80;99.90;;;;;;5045595;28;20487;-73
2023/03/05 06:24:18;;;;;;;0.60;0.60;;;2.70;99.90;;;;;;5041189;28;20930;-73
2023/03/05 06:26:48;;;;;;;0.85;0.60;;;2.70;99.90;;;;;;5041024;28;20430;-73
2023/03/05 06:29:15;;;;;;;0.80;0.68;;;2.70;99.90;;;;;;5037372;28;20434;-73
2023/03/05 06:31:42;;;;;;;0.45;0.45;;;2.60;99.90;;;;;;5034470;28;20437;-73
2023/03/05 06:34:09;;;;;;;0.35;0.35;;;2.60;99.90;;;;;;5039191;28;20798;-73
2023/03/05 06:36:39;;;;;;;1.50;1.00;;;2.60;99.90;;;;;;5044121;28;20435;-73
2023/03/05 06:39:06;;;;;;;0.63;0.33;;;2.60;99.90;;;;;;5040718;28;20423;-73
2023/03/05 06:41:33;;;;;;;0.50;0.50;;;2.60;99.90;;;;;;5039738;28;20441;-73
2023/03/05 06:44:01;;;;;;;1.98;0.77;;;2.60;99.90;;;;;;5030573;28;20967;-73
2023/03/05 06:46:30;;;;;;;2.10;0.80;;;2.60;99.90;;;;;;5035377;28;20435;-73
2023/03/05 06:49:01;;;;;;;0.45;0.45;;;2.70;99.90;;;;;;5036019;28;20481;-73
2023/03/05 06:51:34;;;;;;;1.45;0.82;;;2.80;99.90;;;;;;5032294;28;20543;-73
2023/03/05 06:54:11;;;;;;;0.85;0.85;;;2.90;99.90;;;;;;5031998;28;20446;-71
2023/03/05 06:56:41;;;;;;;1.10;1.10;;;3.00;99.90;;;;;;5033606;28;20887;-72
2023/03/05 06:59:09;;;;;;;1.30;1.30;;;3.10;99.90;;;;;;5037690;28;20434;-72
2023/03/05 07:01:36;;;;;;;2.10;1.50;;;3.20;99.90;;;;;;5036433;28;20543;-72
2023/03/05 07:04:05;;;;;;;1.60;1.13;;;3.10;99.90;;;;;;5039885;28;20512;-71
2023/03/05 07:06:35;;;;;;;3.13;1.43;;;3.10;99.90;;;;;;5039156;28;20427;-72
2023/03/05 07:09:04;;;;;;;3.00;1.88;;;3.20;99.90;;;;;;5031668;28;20521;-71
2023/03/05 07:11:31;;;;;;;1.25;1.15;;;3.20;1.00;;;;;;5035411;28;20429;-72
2023/03/05 07:13:58;;;;;;;1.77;1.40;;;3.30;1.00;;;;;;5028555;28;20439;-72
2023/03/05 07:16:27;;;;;;;1.10;1.02;;;3.40;1.00;;;;;;5032784;28;20464;-71
2023/03/05 07:18:56;;;;;;;1.70;1.08;;;3.40;1.00;;;;;;5037679;28;20441;-71
2023/03/05 07:21:25;;;;;;;1.33;1.25;;;3.50;1.00;;;;;;5034060;28;20498;-71
2023/03/05 07:23:53;;;;;;;4.43;1.73;;;3.60;1.00;;;;;;5036269;28;20444;-71
2023/03/05 07:26:20;;;;;;;5.15;2.20;;;3.60;1.00;;;;;;5034512;28;21093;-71
2023/03/05 07:28:47;;;;;;;6.20;2.53;;;3.70;1.00;;;;;;5036414;28;20491;-71
2023/03/05 07:31:18;;;;;;;1.40;1.40;;;3.90;1.00;;;;;;5043757;28;20433;-71
2023/03/05 07:33:46;;;;;;;1.67;1.30;;;3.80;1.00;;;;;;5043169;28;20423;-71
2023/03/05 07:36:13;;;;;;;1.55;1.02;;;3.90;1.00;;;;;;5028037;28;20930;-71
2023/03/05 07:38:40;;;;;;;2.78;1.85;;;3.90;1.00;;;;;;5031927;28;20421;-71
2023/03/05 07:41:11;;;;;;;1.27;1.20;;;4.00;1.00;;;;;;5033742;28;20425;-71
2023/03/05 07:43:38;;;;;;;2.40;1.30;;;4.10;1.00;;;;;;5039475;28;20436;-71
2023/03/05 07:46:07;;;;;;;1.30;1.07;;;4.10;1.00;;;;;;5034162;28;20437;-72
2023/03/05 07:48:34;;;;;;;1.10;0.93;;;4.10;1.00;;;;;;5041861;28;20444;-73
2023/03/05 07:51:07;;;;;;;2.20;2.00;;;4.20;1.00;;;;;;5029562;28;20433;-72
2023/03/05 07:53:34;;;;;;;2.40;1.15;;;4.20;1.00;;;;;;5036253;28;20441;-72
2023/03/05 07:56:01;;;;;;;2.40;1.27;;;4.30;1.00;;;;;;5035452;28;20418;-73
2023/03/05 07:58:28;;;;;;;3.22;1.77;;;4.40;1.00;;;;;;5039323;28;20433;-73
2023/03/05 08:00:55;;;;;;;1.08;0.95;;;4.40;1.00;;;;;;5032340;28;20436;-72
2023/03/05 08:03:21;;;;;;;1.03;1.03;;;4.50;1.00;;;;;;5029329;28;20437;-72
2023/03/05 08:05:54;;;;;;;2.50;1.20;;;4.60;1.00;;;;;;5041127;28;20908;-73
2023/03/05 08:08:21;;;;;;;2.78;1.70;;;4.60;1.00;;;;;;5041563;28;20440;-73
2023/03/05 08:10:48;;;;;;;4.38;1.48;;;4.60;1.00;;;;;;5039488;28;20448;-73
2023/03/05 08:13:14;;;;;;;1.87;1.13;;;4.60;1.00;;;;;;5038407;28;20521;-72
2023/03/05 08:15:41;;;;;;;1.35;1.25;;;4.60;1.00;;;;;;5037526;28;20440;-72
2023/03/05 08:18:08;;;;;;;1.30;1.05;;;4.60;1.00;;;;;;5038897;28;20463;-72
2023/03/05 08:20:37;;;;;;;1.38;1.38;;;4.60;1.00;;;;;;5039639;28;20433;-71
2023/03/05 08:23:04;;;;;;;3.15;1.15;;;4.50;99.90;;;;;;5040018;28;20429;-71
2023/03/05 08:25:31;;;;;;;2.00;1.70;;;4.50;99.90;;;;;;5037295;28;20438;-71
2023/03/05 08:27:57;;;;;;;1.20;1.20;;;4.60;99.90;;;;;;5041572;28;20993;-72
2023/03/05 08:30:26;;;;;;;3.25;1.42;;;4.70;99.90;;;;;;5040801;28;20490;-72
2023/03/05 08:32:53;;;;;;;3.30;1.33;;;4.70;99.90;;;;;;5045945;28;20425;-71
2023/03/05 08:35:23;;;;;;;2.40;1.08;;;4.80;99.90;;;;;;5038850;28;20463;-72
2023/03/05 08:37:50;;;;;;;4.80;1.53;;;4.80;99.90;;;;;;5043172;28;21057;-72
2023/03/05 08:40:18;;;;;;;1.85;1.13;;;4.70;99.90;;;;;;5041861;28;20437;-72
2023/03/05 08:42:45;;;;;;;0.85;0.85;;;4.70;99.90;;;;;;5043924;28;20433;-71
2023/03/05 08:45:12;;;;;;;1.33;1.10;;;4.70;99.90;;;;;;5041272;28;20922;-71
2023/03/05 08:47:41;;;;;;;1.27;1.20;;;4.70;99.90;;;;;;5037630;28;20494;-71
2023/03/05 08:50:09;;;;;;;1.40;1.00;;;4.80;99.90;;;;;;5039480;28;20943;-71
2023/03/05 08:52:35;;;;;;;1.83;1.70;;;4.80;99.90;;;;;;5034338;28;20508;-72
2023/03/05 08:55:02;;;;;;;1.67;0.82;;;4.90;1.00;;;;;;5041111;28;20516;-72
2023/03/05 08:57:29;;;;;;;5.47;1.10;;;5.00;1.00;;;;;;5027290;28;20451;-72
2023/03/05 08:59:56;;;;;;;1.23;1.20;;;5.10;1.00;;;;;;5037228;28;20458;-71
2023/03/05 09:02:23;;;;;;;1.23;1.02;;;5.20;1.00;;;;;;5037032;28;20763;-71
2023/03/05 09:04:50;;;;;;;1.58;1.25;;;5.20;1.00;;;;;;5035950;28;20444;-71
2023/03/05 09:07:16;;;;;;;2.88;1.70;;;5.30;1.00;;;;;;5039835;28;20792;-72
2023/03/05 09:09:43;;;;;;;1.53;1.20;;;5.40;1.00;;;;;;5037103;28;20448;-72
2023/03/05 09:12:14;;;;;;;3.70;1.25;;;5.50;1.00;;;;;;5034633;28;20442;-72
2023/03/05 09:14:41;;;;;;;1.53;0.63;;;5.60;1.00;;;;;;5040729;28;20908;-72
2023/03/05 09:17:08;;;;;;;1.55;1.45;;;5.60;1.00;;;;;;5034497;28;20509;-72
2023/03/05 09:19:35;;;;;;;1.58;1.25;;;5.60;1.00;;;;;;5036026;28;20434;-72
2023/03/05 09:22:04;;;;;;;1.55;1.15;;;5.70;1.00;;;;;;5042048;28;20429;-72
2023/03/05 09:24:31;;;;;;;7.70;2.05;;;5.60;1.00;;;;;;5037155;28;20437;-72
2023/03/05 09:26:59;;;;;;;1.63;1.52;;;5.70;1.00;;;;;;5032722;28;20429;-71
2023/03/05 09:29:26;;;;;;;1.98;1.55;;;5.70;1.00;;;;;;5038252;28;20432;-71
2023/03/05 09:31:54;;;;;;;1.90;1.17;;;5.60;1.00;;;;;;5037490;28;21077;-71
2023/03/05 09:34:21;;;;;;;2.40;1.13;;;5.70;1.00;;;;;;5035719;28;20469;-72
2023/03/05 09:36:48;;;;;;;0.73;0.73;;;5.70;1.00;;;;;;5040350;28;20508;-71
2023/03/05 09:39:15;;;;;;;1.63;1.17;;;5.80;1.00;;;;;;5033748;28;20556;-70
2023/03/05 09:42:08;;;;;;;2.35;0.80;;;5.80;1.00;;;;;;5040716;28;20425;-71
2023/03/05 09:45:01;;;;;;;1.00;0.63;;;5.70;1.00;;;;;;5035780;28;20485;-71
2023/03/05 09:47:36;;;;;;;1.08;1.08;;;5.70;1.00;;;;;;5036309;28;20487;-71
2023/03/05 09:50:06;;;;;;;1.83;0.73;;;5.70;1.00;;;;;;5040542;28;20442;-71
2023/03/05 09:52:42;;;;;;;1.80;0.85;;;5.60;1.00;;;;;;5040347;28;20813;-71
2023/03/05 09:55:16;;;;;;;0.80;0.80;;;5.50;1.00;;;;;;5040867;28;20431;-72
2023/03/05 09:57:50;;;;;;;0.65;0.65;;;5.40;1.00;;;;;;5035665;28;20437;-72
2023/03/05 10:00:45;;;;;;;1.77;1.05;;;5.40;1.00;;;;;;5038615;28;20473;-72
2023/03/05 10:03:23;;;;;;;2.17;0.88;;;5.40;1.00;;;;;;5038933;28;20433;-72
2023/03/05 10:06:13;;;;;;;3.30;1.13;;;5.40;1.00;;;;;;5036307;28;20433;-71
2023/03/05 10:09:02;;;;;;;0.88;0.88;;;5.50;1.00;;;;;;5036264;28;20526;-71
2023/03/05 10:11:50;;;;;;;1.45;0.98;;;5.50;1.00;;;;;;5034364;28;21322;-71
2023/03/05 10:14:39;;;;;;;0.50;0.50;;;5.40;1.00;;;;;;5044723;28;20444;-72
2023/03/05 10:17:42;;;;;;;1.58;0.73;;;5.50;1.00;;;;;;5034404;28;20435;-71
2023/03/05 10:20:51;;;;;;;0.57;0.55;;;5.60;1.00;;;;;;5036214;28;20875;-71
2023/03/05 10:23:50;;;;;;;1.60;0.90;;;5.70;1.00;;;;;;5042007;28;20476;-72
2023/03/05 10:26:37;;;;;;;1.10;0.80;;;5.80;1.00;;;;;;5038186;28;20427;-72
2023/03/05 10:29:16;;;;;;;3.63;1.15;;;5.80;1.00;;;;;;5046806;28;20500;-72
2023/03/05 10:32:25;;;;;;;0.75;0.65;;;6.00;1.00;;;;;;5022357;28;20457;-70
2023/03/05 10:35:10;;;;;;;4.68;0.88;;;6.10;1.00;;;;;;5035554;28;20429;-71
2023/03/05 10:37:59;;;;;;;1.80;1.10;;;6.20;1.00;;;;;;5037133;28;20553;-71
2023/03/05 10:40:47;;;;;;;0.90;0.75;;;6.30;1.00;;;;;;5019793;28;20436;-71
2023/03/05 10:43:23;;;;;;;1.20;0.70;;;6.30;1.00;;;;;;5036511;28;20439;-71
2023/03/05 10:45:52;;;;;;;3.40;0.77;;;6.30;1.00;;;;;;5018081;28;20475;-71
2023/03/05 10:48:57;;;;;;;1.10;0.98;;;6.30;1.00;;;;;;5043094;28;20431;-71
2023/03/05 10:51:37;;;;;;;0.95;0.88;;;6.30;1.00;;;;;;5032532;28;23196;-71
2023/03/05 10:54:10;;;;;;;0.90;0.90;;;6.40;1.00;;;;;;5039828;28;20514;-71
2023/03/05 10:56:37;;;;;;;1.30;0.60;;;6.50;1.00;;;;;;5039741;28;20428;-71
2023/03/05 10:59:03;;;;;;;3.07;1.17;;;6.50;1.00;;;;;;5035108;28;20421;-71
2023/03/05 11:01:31;;;;;;;0.90;0.90;;;6.50;1.00;;;;;;5031455;28;20919;-71
2023/03/05 11:04:04;;;;;;;1.30;0.80;;;6.60;1.00;;;;;;5035935;28;21181;-71
2023/03/05 11:06:41;;;;;;;0.80;0.80;;;6.60;1.00;;;;;;5036730;28;20852;-71
2023/03/05 11:09:30;;;;;;;2.72;1.10;;;6.60;1.00;;;;;;5037137;28;20448;-71
2023/03/05 11:12:08;;;;;;;0.70;0.65;;;6.50;1.00;;;;;;5028341;28;20433;-71
2023/03/05 11:15:05;;;;;;;0.70;0.50;;;6.20;1.00;;;;;;5024009;28;20433;-72
2023/03/05 11:17:38;;;;;;;0.50;0.50;;;6.20;1.00;;;;;;5026068;28;20439;-72
2023/03/05 11:20:26;;;;;;;0.45;0.38;;;6.10;1.00;;;;;;5033505;28;20440;-71
2023/03/05 11:23:25;;;;;;;1.20;0.80;;;6.00;1.00;;;;;;5026297;28;20447;-72
2023/03/05 11:26:00;;;;;;;1.65;0.90;;;6.00;1.00;;;;;;5026681;28;20439;-71
2023/03/05 11:29:00;;;;;;;1.85;1.05;;;5.90;1.00;;;;;;5037224;28;20486;-71
2023/03/05 11:31:32;;;;;;;0.52;0.43;;;5.60;1.00;;;;;;5050824;28;20536;-72
2023/03/05 11:34:29;;;;;;;5.93;0.43;;;5.50;1.00;;;;;;5058691;28;20429;-72
2023/03/05 11:36:55;;;;;;;0.60;0.60;;;5.50;1.00;;;;;;5053424;28;20545;-72
2023/03/05 11:39:26;;;;;;;0.70;0.70;;;5.60;1.00;;;;;;5063004;28;20479;-71
2023/03/05 11:42:03;;;;;;;1.92;0.77;;;5.70;1.00;;;;;;5064904;28;20428;-71
2023/03/05 11:44:38;;;;;;;2.45;1.45;;;5.80;1.00;;;;;;5069435;28;20442;-72
2023/03/05 11:47:36;;;;;;;3.00;1.33;;;6.00;1.00;;;;;;5072727;28;20469;-72
2023/03/05 11:50:14;;;;;;;1.13;0.57;;;6.30;1.00;;;;;;5073091;28;20431;-71
2023/03/05 11:53:17;;;;;;;3.10;1.20;;;6.50;1.00;;;;;;5059376;28;20489;-71
2023/03/05 11:55:53;;;;;;;0.80;0.80;;;6.60;1.00;;;;;;5037473;28;21158;-71
2023/03/05 11:58:28;;;;;;;9.10;1.13;;;6.70;36.30;;;;;;5066647;28;20436;-70
2023/03/05 12:00:55;;;;;;;1.13;1.02;;;;;;;;;;5069902;28;20453;-71
2023/03/05 12:03:30;;;;;;;2.80;0.93;;;;;;;;;;5073194;28;20453;-71
2023/03/05 12:06:00;;;;;;;1.20;1.10;;;;;;;;;;5066169;28;20421;-71
2023/03/05 12:08:32;;;;;;;1.35;1.00;;;7.00;97.40;;;;;;5049978;28;20449;-71
2023/03/05 12:11:06;;;;;;;1.10;1.08;;;7.30;1.00;;;;;;5034468;28;20811;-70
2023/03/05 12:13:42;;;;;;;2.08;1.00;;;7.20;1.00;;;;;;5037491;28;20435;-71
2023/03/05 12:16:27;;;;;;;0.93;0.93;;;7.20;1.00;;;;;;5032480;28;20430;-72
2023/03/05 12:19:09;;;;;;;1.63;1.05;;;7.10;1.00;;;;;;5037981;28;20918;-71
2023/03/05 12:21:41;;;;;;;0.50;0.50;;;7.10;1.00;;;;;;5033691;28;20420;-71
2023/03/05 12:24:24;;;;;;;0.50;0.50;;;7.30;1.00;;;;;;5044379;28;20434;-71
2023/03/05 12:27:03;;;;;;;0.60;0.60;;;7.70;1.00;;;;;;5030633;28;20489;-71
2023/03/05 12:29:38;;;;;;;1.20;0.65;;;8.10;1.00;;;;;;5032661;28;20560;-71
2023/03/05 12:32:32;;;;;;;0.65;0.52;;;;;;;;;;5038162;28;20518;-71
2023/03/05 12:35:22;;;;;;;0.40;0.40;;;8.80;1.00;;;;;;5029215;28;20437;-71
2023/03/05 12:37:52;;;;;;;1.92;0.88;;;9.90;1.00;;;;;;5042511;28;20429;-73
2023/03/05 12:40:24;;;;;;;0.80;0.57;;;9.80;1.00;;;;;;5034853;28;20435;-70
2023/03/05 12:42:53;;;;;;;1.00;0.63;;;9.60;1.00;;;;;;5040870;28;20786;-71
2023/03/05 12:45:20;;;;;;;0.50;0.50;;;9.40;1.00;;;;;;5038046;28;20431;-72
2023/03/05 12:48:10;;;;;;;1.17;0.55;;;9.20;19.00;;;;;;5048678;28;21284;-71
2023/03/05 12:50:37;;;;;;;2.10;0.68;;;9.10;99.90;;;;;;5048681;28;20532;-73
2023/03/05 12:53:05;;;;;;;0.55;0.55;;;;;;;;;;5043185;28;20432;-70
2023/03/05 12:55:39;;;;;;;0.82;0.82;;;;;;;;;;5037187;28;20806;-71
2023/03/05 12:58:25;;;;;;;1.50;0.50;;;;;;;;;;5036504;28;20539;-71
2023/03/05 13:00:55;;;;;;;0.50;0.50;;;;;;;;;;5040229;28;20425;-70
2023/03/05 13:03:45;;;;;;;0.57;0.50;;;;;;;;;;5037576;28;20452;-70
2023/03/05 13:06:30;;;;;;;1.25;0.70;;;;;;;;;;5040265;28;21053;-71
2023/03/05 13:09:01;;;;;;;0.47;0.47;;;;;;;;;;5042146;28;20511;-71
2023/03/05 13:11:33;;;;;;;3.70;1.00;;;;;;;;;;5040932;28;20434;-71
2023/03/05 13:14:01;;;;;;;0.68;0.68;;;;;;;;;;5034937;28;20520;-71
2023/03/05 13:16:36;;;;;;;0.70;0.57;;;8.70;66.10;;;;;;5032418;28;20466;-71
2023/03/05 13:19:03;;;;;;;0.63;0.40;;;;;;;;;;5035253;28;20966;-71
2023/03/05 13:21:31;;;;;;;0.60;0.60;;;;;;;;;;5043673;28;20432;-71
2023/03/05 13:24:00;;;;;;;0.63;0.43;;;6.60;99.90;;;;;;5036846;28;20445;-71
2023/03/05 13:26:36;;;;;;;1.23;0.93;;;6.20;99.90;;;;;;5044008;28;20494;-71
2023/03/05 13:29:09;;;;;;;1.03;0.70;;;6.10;1.00;;;;;;5045896;28;20427;-71
2023/03/05 13:31:41;;;;;;;0.75;0.75;;;;;;;;;;5032544;28;20518;-71